sensor_id;sensor_type;location;lat;lon;timestamp;pressure;altitude;pressure_sealevel;temperature;humidity
21401;BME280;18038;50.166;18.908;2023-02-04T00:01:13;97224.00;;;0.27;86.84
21401;BME280;18038;50.166;18.908;2023-02-04T00:04:21;97223.34;;;0.25;86.74
21401;BME280;18038;50.166;18.908;2023-02-04T00:07:28;97221.84;;;0.23;86.67
21401;BME280;18038;50.166;18.908;2023-02-04T00:10:36;97215.84;;;0.30;86.64
21401;BME280;18038;50.166;18.908;2023-02-04T00:13:42;97227.00;;;0.32;86.71
21401;BME280;18038;50.166;18.908;2023-02-04T00:16:48;97219.13;;;0.32;86.39
21401;BME280;18038;50.166;18.908;2023-02-04T00:19:58;97214.56;;;0.34;86.47
21401;BME280;18038;50.166;18.908;2023-02-04T00:23:09;97228.00;;;0.31;86.19
21401;BME280;18038;50.166;18.908;2023-02-04T00:26:16;97221.44;;;0.35;85.99
21401;BME280;18038;50.166;18.908;2023-02-04T00:29:22;97213.66;;;0.26;86.01
21401;BME280;18038;50.166;18.908;2023-02-04T00:32:29;97225.75;;;0.36;85.66
21401;BME280;18038;50.166;18.908;2023-02-04T00:35:37;97225.75;;;0.36;85.80
21401;BME280;18038;50.166;18.908;2023-02-04T00:38:44;97223.19;;;0.27;86.39
21401;BME280;18038;50.166;18.908;2023-02-04T00:41:50;97227.59;;;0.26;86.45
21401;BME280;18038;50.166;18.908;2023-02-04T00:45:00;97223.03;;;0.28;86.27
21401;BME280;18038;50.166;18.908;2023-02-04T00:48:12;97227.00;;;0.32;86.72
21401;BME280;18038;50.166;18.908;2023-02-04T00:51:22;97225.56;;;0.38;86.32
21401;BME280;18038;50.166;18.908;2023-02-04T00:54:30;97224.06;;;0.35;86.45
21401;BME280;18038;50.166;18.908;2023-02-04T00:57:37;97216.81;;;0.29;86.83
21401;BME280;18038;50.166;18.908;2023-02-04T01:00:43;97217.94;;;0.27;86.66
21401;BME280;18038;50.166;18.908;2023-02-04T01:03:50;97199.97;;;0.22;86.73
21401;BME280;18038;50.166;18.908;2023-02-04T01:07:07;97212.22;;;0.31;86.89
21401;BME280;18038;50.166;18.908;2023-02-04T01:10:15;97206.28;;;0.29;86.66
21401;BME280;18038;50.166;18.908;2023-02-04T01:13:21;97204.34;;;0.31;86.84
21401;BME280;18038;50.166;18.908;2023-02-04T01:16:28;97187.28;;;0.35;86.61
21401;BME280;18038;50.166;18.908;2023-02-04T01:19:34;97187.22;;;0.27;86.54
21401;BME280;18038;50.166;18.908;2023-02-04T01:22:47;97185.22;;;0.21;86.56
21401;BME280;18038;50.166;18.908;2023-02-04T01:25:55;97177.56;;;0.28;86.65
21401;BME280;18038;50.166;18.908;2023-02-04T01:29:02;97164.06;;;0.23;86.28
21401;BME280;18038;50.166;18.908;2023-02-04T01:32:08;97157.31;;;0.20;86.31
21401;BME280;18038;50.166;18.908;2023-02-04T01:35:15;97162.00;;;0.34;86.39
21401;BME280;18038;50.166;18.908;2023-02-04T01:38:24;97161.34;;;0.32;85.81
21401;BME280;18038;50.166;18.908;2023-02-04T01:41:31;97168.25;;;0.33;86.07
21401;BME280;18038;50.166;18.908;2023-02-04T01:44:37;97163.13;;;0.32;85.59
21401;BME280;18038;50.166;18.908;2023-02-04T01:47:45;97179.50;;;0.26;85.54
21401;BME280;18038;50.166;18.908;2023-02-04T01:50:54;97173.44;;;0.25;85.68
21401;BME280;18038;50.166;18.908;2023-02-04T01:54:12;97175.44;;;0.13;85.35
21401;BME280;18038;50.166;18.908;2023-02-04T01:57:20;97180.19;;;0.10;84.19
21401;BME280;18038;50.166;18.908;2023-02-04T02:00:28;97211.09;;;0.16;84.12
21401;BME280;18038;50.166;18.908;2023-02-04T02:03:37;97210.78;;;0.19;83.49
21401;BME280;18038;50.166;18.908;2023-02-04T02:06:48;97206.19;;;-0.15;82.03
21401;BME280;18038;50.166;18.908;2023-02-04T02:10:02;97212.81;;;-0.38;82.84
21401;BME280;18038;50.166;18.908;2023-02-04T02:13:14;97225.31;;;-0.60;84.06
21401;BME280;18038;50.166;18.908;2023-02-04T02:16:22;97227.56;;;-0.75;84.10
21401;BME280;18038;50.166;18.908;2023-02-04T02:19:35;97227.31;;;-0.81;84.48
21401;BME280;18038;50.166;18.908;2023-02-04T02:22:54;97228.72;;;-0.87;84.22
21401;BME280;18038;50.166;18.908;2023-02-04T02:26:09;97236.72;;;-0.88;84.91
21401;BME280;18038;50.166;18.908;2023-02-04T02:29:15;97249.28;;;-0.92;84.97
21401;BME280;18038;50.166;18.908;2023-02-04T02:32:22;97252.31;;;-0.87;85.01
21401;BME280;18038;50.166;18.908;2023-02-04T02:35:28;97258.28;;;-1.04;85.00
21401;BME280;18038;50.166;18.908;2023-02-04T02:38:36;97269.19;;;-0.99;85.32
21401;BME280;18038;50.166;18.908;2023-02-04T02:41:45;97265.88;;;-1.01;85.72
21401;BME280;18038;50.166;18.908;2023-02-04T02:44:52;97273.72;;;-1.01;84.95
21401;BME280;18038;50.166;18.908;2023-02-04T02:48:00;97279.00;;;-1.30;84.97
21401;BME280;18038;50.166;18.908;2023-02-04T02:51:08;97289.47;;;-1.30;85.34
21401;BME280;18038;50.166;18.908;2023-02-04T02:54:21;97293.88;;;-1.41;85.31
21401;BME280;18038;50.166;18.908;2023-02-04T02:57:36;97299.09;;;-1.50;85.78
21401;BME280;18038;50.166;18.908;2023-02-04T03:00:44;97294.69;;;-1.50;85.78
21401;BME280;18038;50.166;18.908;2023-02-04T03:03:51;97294.69;;;-1.50;86.22
21401;BME280;18038;50.166;18.908;2023-02-04T03:06:57;97294.16;;;-1.44;86.23
21401;BME280;18038;50.166;18.908;2023-02-04T03:10:10;97295.25;;;-1.56;86.31
21401;BME280;18038;50.166;18.908;2023-02-04T03:13:20;97295.38;;;-1.67;86.30
21401;BME280;18038;50.166;18.908;2023-02-04T03:16:33;97303.66;;;-1.52;86.55
21401;BME280;18038;50.166;18.908;2023-02-04T03:19:42;97312.19;;;-1.60;86.40
21401;BME280;18038;50.166;18.908;2023-02-04T03:22:49;97325.56;;;-1.53;86.79
21401;BME280;18038;50.166;18.908;2023-02-04T03:25:56;97326.09;;;-1.69;86.54
21401;BME280;18038;50.166;18.908;2023-02-04T03:29:09;97330.03;;;-1.85;87.28
21401;BME280;18038;50.166;18.908;2023-02-04T03:32:15;97327.28;;;-1.93;87.71
21401;BME280;18038;50.166;18.908;2023-02-04T03:35:26;97335.94;;;-2.02;88.25
21401;BME280;18038;50.166;18.908;2023-02-04T03:38:32;97326.38;;;-2.13;88.81
21401;BME280;18038;50.166;18.908;2023-02-04T03:41:39;97354.47;;;-1.84;88.78
21401;BME280;18038;50.166;18.908;2023-02-04T03:44:48;97359.66;;;-1.94;87.83
21401;BME280;18038;50.166;18.908;2023-02-04T03:47:55;97360.31;;;-2.02;87.90
21401;BME280;18038;50.166;18.908;2023-02-04T03:51:11;97369.91;;;-2.12;88.39
21401;BME280;18038;50.166;18.908;2023-02-04T03:54:21;97388.88;;;-2.19;88.74
21401;BME280;18038;50.166;18.908;2023-02-04T03:57:27;97401.78;;;-2.28;88.81
21401;BME280;18038;50.166;18.908;2023-02-04T04:00:36;97408.78;;;-2.28;89.35
21401;BME280;18038;50.166;18.908;2023-02-04T04:03:42;97422.00;;;-2.30;89.10
21401;BME280;18038;50.166;18.908;2023-02-04T04:06:49;97431.81;;;-2.43;88.87
21401;BME280;18038;50.166;18.908;2023-02-04T04:10:00;97459.69;;;-2.53;89.20
21401;BME280;18038;50.166;18.908;2023-02-04T04:13:08;97482.56;;;-2.66;88.75
21401;BME280;18038;50.166;18.908;2023-02-04T04:16:16;97529.41;;;-2.63;88.83
21401;BME280;18038;50.166;18.908;2023-02-04T04:19:24;97535.09;;;-2.70;87.29
21401;BME280;18038;50.166;18.908;2023-02-04T04:22:30;97560.28;;;-2.57;87.44
21401;BME280;18038;50.166;18.908;2023-02-04T04:25:36;97581.78;;;-2.65;86.75
21401;BME280;18038;50.166;18.908;2023-02-04T04:28:46;97577.69;;;-2.79;85.72
21401;BME280;18038;50.166;18.908;2023-02-04T04:31:56;97618.34;;;-3.08;84.38
21401;BME280;18038;50.166;18.908;2023-02-04T04:35:09;97644.19;;;-3.17;84.20
21401;BME280;18038;50.166;18.908;2023-02-04T04:38:16;97664.03;;;-3.14;84.76
21401;BME280;18038;50.166;18.908;2023-02-04T04:41:22;97700.94;;;-3.30;83.99
21401;BME280;18038;50.166;18.908;2023-02-04T04:44:29;97700.81;;;-3.40;83.33
21401;BME280;18038;50.166;18.908;2023-02-04T04:47:39;97723.28;;;-3.26;83.87
21401;BME280;18038;50.166;18.908;2023-02-04T04:50:46;97732.25;;;-3.41;83.81
21401;BME280;18038;50.166;18.908;2023-02-04T04:53:52;97766.47;;;-3.33;84.05
21401;BME280;18038;50.166;18.908;2023-02-04T04:57:04;97785.66;;;-3.45;84.58
21401;BME280;18038;50.166;18.908;2023-02-04T05:00:14;97794.63;;;-3.61;83.47
21401;BME280;18038;50.166;18.908;2023-02-04T05:03:25;97813.63;;;-3.59;84.25
21401;BME280;18038;50.166;18.908;2023-02-04T05:06:31;97830.88;;;-3.69;83.61
21401;BME280;18038;50.166;18.908;2023-02-04T05:09:38;97853.47;;;-3.57;83.64
21401;BME280;18038;50.166;18.908;2023-02-04T05:12:44;97872.47;;;-3.54;83.02
21401;BME280;18038;50.166;18.908;2023-02-04T05:15:51;97886.31;;;-3.65;82.55
21401;BME280;18038;50.166;18.908;2023-02-04T05:19:00;97913.47;;;-3.68;82.95
21401;BME280;18038;50.166;18.908;2023-02-04T05:22:07;97927.56;;;-3.70;82.55
21401;BME280;18038;50.166;18.908;2023-02-04T05:25:13;97964.41;;;-3.62;82.42
21401;BME280;18038;50.166;18.908;2023-02-04T05:28:39;97965.38;;;-3.76;82.63
21401;BME280;18038;50.166;18.908;2023-02-04T05:31:45;98007.22;;;-3.78;82.58
21401;BME280;18038;50.166;18.908;2023-02-04T05:34:54;98021.31;;;-3.80;82.64
21401;BME280;18038;50.166;18.908;2023-02-04T05:38:03;98034.78;;;-3.86;82.91
21401;BME280;18038;50.166;18.908;2023-02-04T05:41:09;98075.09;;;-3.90;82.22
21401;BME280;18038;50.166;18.908;2023-02-04T05:44:15;98090.00;;;-3.92;82.53
21401;BME280;18038;50.166;18.908;2023-02-04T05:47:22;98089.69;;;-4.01;82.43
21401;BME280;18038;50.166;18.908;2023-02-04T05:50:30;98118.06;;;-3.96;82.98
21401;BME280;18038;50.166;18.908;2023-02-04T05:53:43;98121.38;;;-4.07;82.28
21401;BME280;18038;50.166;18.908;2023-02-04T05:56:49;98149.38;;;-4.09;81.59
21401;BME280;18038;50.166;18.908;2023-02-04T05:59:56;98167.22;;;-4.03;81.17
21401;BME280;18038;50.166;18.908;2023-02-04T06:03:13;98206.34;;;-4.03;79.93
21401;BME280;18038;50.166;18.908;2023-02-04T06:06:24;98220.34;;;-4.04;79.93
21401;BME280;18038;50.166;18.908;2023-02-04T06:09:32;98245.00;;;-3.95;80.26
21401;BME280;18038;50.166;18.908;2023-02-04T06:12:41;98252.09;;;-3.97;79.45
21401;BME280;18038;50.166;18.908;2023-02-04T06:15:47;98275.44;;;-4.08;79.27
21401;BME280;18038;50.166;18.908;2023-02-04T06:18:54;98287.88;;;-3.99;79.10
21401;BME280;18038;50.166;18.908;2023-02-04T06:22:13;98305.09;;;-3.96;78.60
21401;BME280;18038;50.166;18.908;2023-02-04T06:25:20;98304.75;;;-3.90;78.03
21401;BME280;18038;50.166;18.908;2023-02-04T06:28:26;98334.47;;;-4.07;78.09
21401;BME280;18038;50.166;18.908;2023-02-04T06:31:34;98343.91;;;-4.05;78.41
21401;BME280;18038;50.166;18.908;2023-02-04T06:34:41;98357.69;;;-4.03;77.52
21401;BME280;18038;50.166;18.908;2023-02-04T06:37:50;98390.78;;;-4.03;77.79
21401;BME280;18038;50.166;18.908;2023-02-04T06:40:56;98397.59;;;-4.01;77.87
21401;BME280;18038;50.166;18.908;2023-02-04T06:44:09;98420.13;;;-4.14;78.32
21401;BME280;18038;50.166;18.908;2023-02-04T06:47:15;98423.47;;;-3.97;78.68
21401;BME280;18038;50.166;18.908;2023-02-04T06:50:23;98451.44;;;-3.99;79.00
21401;BME280;18038;50.166;18.908;2023-02-04T06:53:35;98443.31;;;-4.24;78.41
21401;BME280;18038;50.166;18.908;2023-02-04T06:56:47;98469.13;;;-4.19;78.85
21401;BME280;18038;50.166;18.908;2023-02-04T06:59:56;98485.63;;;-4.04;79.12
21401;BME280;18038;50.166;18.908;2023-02-04T07:03:21;98500.44;;;-4.05;78.12
21401;BME280;18038;50.166;18.908;2023-02-04T07:06:41;98512.94;;;-4.10;78.05
21401;BME280;18038;50.166;18.908;2023-02-04T07:10:07;98542.56;;;-4.11;77.32
21401;BME280;18038;50.166;18.908;2023-02-04T07:13:28;98549.38;;;-3.94;76.96
21401;BME280;18038;50.166;18.908;2023-02-04T07:16:49;98540.72;;;-4.09;76.44
21401;BME280;18038;50.166;18.908;2023-02-04T07:20:13;98568.47;;;-4.08;75.80
21401;BME280;18038;50.166;18.908;2023-02-04T07:23:33;98568.69;;;-3.96;76.10
21401;BME280;18038;50.166;18.908;2023-02-04T07:26:57;98578.84;;;-3.92;76.06
21401;BME280;18038;50.166;18.908;2023-02-04T07:30:19;98599.72;;;-3.92;76.52
21401;BME280;18038;50.166;18.908;2023-02-04T07:33:51;98613.03;;;-3.96;76.95
21401;BME280;18038;50.166;18.908;2023-02-04T07:37:15;98626.66;;;-3.91;77.22
21401;BME280;18038;50.166;18.908;2023-02-04T07:40:43;98630.97;;;-3.90;76.88
21401;BME280;18038;50.166;18.908;2023-02-04T07:44:10;98638.63;;;-3.87;76.80
21401;BME280;18038;50.166;18.908;2023-02-04T07:47:31;98636.44;;;-3.95;75.92
21401;BME280;18038;50.166;18.908;2023-02-04T07:50:52;98658.34;;;-3.97;74.47
21401;BME280;18038;50.166;18.908;2023-02-04T07:54:13;98664.91;;;-3.90;73.76
21401;BME280;18038;50.166;18.908;2023-02-04T07:57:34;98662.19;;;-3.89;72.34
21401;BME280;18038;50.166;18.908;2023-02-04T08:01:06;98680.19;;;-3.84;72.95
21401;BME280;18038;50.166;18.908;2023-02-04T08:04:27;98698.63;;;-3.71;73.00
21401;BME280;18038;50.166;18.908;2023-02-04T08:07:48;98705.88;;;-3.76;72.20
21401;BME280;18038;50.166;18.908;2023-02-04T08:11:09;98727.50;;;-3.74;73.17
21401;BME280;18038;50.166;18.908;2023-02-04T08:14:30;98729.94;;;-3.71;73.62
21401;BME280;18038;50.166;18.908;2023-02-04T08:17:53;98740.44;;;-3.57;74.33
21401;BME280;18038;50.166;18.908;2023-02-04T08:21:14;98743.19;;;-3.74;74.66
21401;BME280;18038;50.166;18.908;2023-02-04T08:24:35;98746.63;;;-3.74;74.02
21401;BME280;18038;50.166;18.908;2023-02-04T08:27:56;98765.06;;;-3.61;73.91
21401;BME280;18038;50.166;18.908;2023-02-04T08:31:17;98766.22;;;-3.67;73.35
21401;BME280;18038;50.166;18.908;2023-02-04T08:34:45;98787.88;;;-3.65;73.71
21401;BME280;18038;50.166;18.908;2023-02-04T08:38:06;98805.22;;;-3.64;73.26
21401;BME280;18038;50.166;18.908;2023-02-04T08:41:27;98815.06;;;-3.53;73.11
21401;BME280;18038;50.166;18.908;2023-02-04T08:44:56;98823.91;;;-3.40;71.96
21401;BME280;18038;50.166;18.908;2023-02-04T08:48:19;98828.19;;;-3.39;71.16
21401;BME280;18038;50.166;18.908;2023-02-04T08:51:43;98829.09;;;-3.24;70.78
21401;BME280;18038;50.166;18.908;2023-02-04T08:55:05;98840.69;;;-3.14;70.23
21401;BME280;18038;50.166;18.908;2023-02-04T08:58:27;98849.22;;;-2.96;70.07
21401;BME280;18038;50.166;18.908;2023-02-04T09:01:48;98860.75;;;-2.84;69.13
21401;BME280;18038;50.166;18.908;2023-02-04T09:05:14;98862.03;;;-2.47;69.36
21401;BME280;18038;50.166;18.908;2023-02-04T09:08:38;98868.94;;;-1.20;66.17
21401;BME280;18038;50.166;18.908;2023-02-04T09:12:00;98876.31;;;-1.12;64.13
21401;BME280;18038;50.166;18.908;2023-02-04T09:15:27;98889.19;;;-1.77;66.36
21401;BME280;18038;50.166;18.908;2023-02-04T09:18:48;98890.34;;;-2.39;69.69
21401;BME280;18038;50.166;18.908;2023-02-04T09:22:08;98900.97;;;-2.86;71.05
21401;BME280;18038;50.166;18.908;2023-02-04T09:25:35;98909.56;;;-2.54;69.64
21401;BME280;18038;50.166;18.908;2023-02-04T09:28:56;98911.28;;;-2.25;68.03
21401;BME280;18038;50.166;18.908;2023-02-04T09:32:19;98931.28;;;-1.66;64.20
21401;BME280;18038;50.166;18.908;2023-02-04T09:35:40;98919.84;;;-0.70;62.15
21401;BME280;18038;50.166;18.908;2023-02-04T09:39:01;98929.00;;;-1.44;63.24
21401;BME280;18038;50.166;18.908;2023-02-04T09:42:25;98938.50;;;-1.70;64.35
21401;BME280;18038;50.166;18.908;2023-02-04T09:45:48;98941.44;;;-2.48;63.75
21401;BME280;18038;50.166;18.908;2023-02-04T09:49:10;98950.13;;;-2.47;64.82
21401;BME280;18038;50.166;18.908;2023-02-04T09:52:31;98956.91;;;-1.71;63.32
21401;BME280;18038;50.166;18.908;2023-02-04T09:55:51;98961.97;;;-1.97;63.15
21401;BME280;18038;50.166;18.908;2023-02-04T09:59:17;98977.44;;;-2.37;64.78
21401;BME280;18038;50.166;18.908;2023-02-04T10:02:49;98980.34;;;-2.27;64.00
21401;BME280;18038;50.166;18.908;2023-02-04T10:06:18;98974.88;;;-1.37;61.51
21401;BME280;18038;50.166;18.908;2023-02-04T10:09:40;98977.31;;;-1.91;62.77
21401;BME280;18038;50.166;18.908;2023-02-04T10:13:15;98992.66;;;-1.42;61.66
21401;BME280;18038;50.166;18.908;2023-02-04T10:16:53;98983.75;;;-0.98;60.05
21401;BME280;18038;50.166;18.908;2023-02-04T10:20:22;98983.28;;;-2.17;61.44
21401;BME280;18038;50.166;18.908;2023-02-04T10:23:47;99005.53;;;-1.96;61.88
21401;BME280;18038;50.166;18.908;2023-02-04T10:27:27;98999.84;;;-2.03;61.81
21401;BME280;18038;50.166;18.908;2023-02-04T10:30:47;99005.44;;;-1.37;59.67
21401;BME280;18038;50.166;18.908;2023-02-04T10:34:16;99004.06;;;-1.71;58.84
21401;BME280;18038;50.166;18.908;2023-02-04T10:37:38;99012.75;;;-2.30;60.01
21401;BME280;18038;50.166;18.908;2023-02-04T10:41:00;99005.28;;;-2.36;59.69
21401;BME280;18038;50.166;18.908;2023-02-04T10:44:27;99009.91;;;-1.10;57.12
21401;BME280;18038;50.166;18.908;2023-02-04T10:47:50;99008.78;;;-0.52;54.16
21401;BME280;18038;50.166;18.908;2023-02-04T10:51:16;99019.69;;;-0.58;54.72
21401;BME280;18038;50.166;18.908;2023-02-04T10:54:38;99025.03;;;-1.28;56.66
21401;BME280;18038;50.166;18.908;2023-02-04T10:58:04;99029.84;;;-2.38;59.68
21401;BME280;18038;50.166;18.908;2023-02-04T11:01:28;99034.47;;;-2.58;60.49
21401;BME280;18038;50.166;18.908;2023-02-04T11:04:52;99046.16;;;-2.19;59.34
21401;BME280;18038;50.166;18.908;2023-02-04T11:08:22;99045.19;;;-2.02;58.06
21401;BME280;18038;50.166;18.908;2023-02-04T11:11:50;99053.81;;;-1.86;57.17
21401;BME280;18038;50.166;18.908;2023-02-04T11:15:40;99051.84;;;-1.10;54.56
21401;BME280;18038;50.166;18.908;2023-02-04T11:19:11;99052.88;;;-1.13;52.46
21401;BME280;18038;50.166;18.908;2023-02-04T11:22:42;99053.06;;;-1.16;52.75
21401;BME280;18038;50.166;18.908;2023-02-04T11:26:11;99058.34;;;-1.59;53.27
21401;BME280;18038;50.166;18.908;2023-02-04T11:29:38;99068.81;;;-1.45;53.87
21401;BME280;18038;50.166;18.908;2023-02-04T11:33:04;99057.22;;;-1.55;54.79
21401;BME280;18038;50.166;18.908;2023-02-04T11:37:12;99072.38;;;-1.60;54.16
21401;BME280;18038;50.166;18.908;2023-02-04T11:40:39;99065.72;;;-1.37;53.32
21401;BME280;18038;50.166;18.908;2023-02-04T11:44:02;99075.06;;;-0.63;52.82
21401;BME280;18038;50.166;18.908;2023-02-04T11:47:24;99062.50;;;-0.31;51.61
21401;BME280;18038;50.166;18.908;2023-02-04T11:50:54;99070.81;;;-0.24;51.59
21401;BME280;18038;50.166;18.908;2023-02-04T11:54:17;99076.38;;;-0.56;51.35
21401;BME280;18038;50.166;18.908;2023-02-04T11:57:41;99080.00;;;-0.85;52.38
21401;BME280;18038;50.166;18.908;2023-02-04T12:01:16;99084.81;;;-1.06;53.25
21401;BME280;18038;50.166;18.908;2023-02-04T12:04:37;99085.94;;;-1.68;53.74
21401;BME280;18038;50.166;18.908;2023-02-04T12:08:09;99090.50;;;-1.71;53.87
21401;BME280;18038;50.166;18.908;2023-02-04T12:11:31;99102.50;;;-1.53;53.31
21401;BME280;18038;50.166;18.908;2023-02-04T12:14:59;99102.13;;;-1.61;53.73
21401;BME280;18038;50.166;18.908;2023-02-04T12:18:26;99105.13;;;-1.67;54.14
21401;BME280;18038;50.166;18.908;2023-02-04T12:21:48;99113.66;;;-1.94;54.15
21401;BME280;18038;50.166;18.908;2023-02-04T12:25:16;99122.13;;;-2.05;54.37
21401;BME280;18038;50.166;18.908;2023-02-04T12:28:36;99120.34;;;-2.34;55.08
21401;BME280;18038;50.166;18.908;2023-02-04T12:31:57;99132.66;;;-2.20;54.91
21401;BME280;18038;50.166;18.908;2023-02-04T12:35:21;99129.97;;;-2.51;56.22
21401;BME280;18038;50.166;18.908;2023-02-04T12:38:42;99132.75;;;-2.38;56.64
21401;BME280;18038;50.166;18.908;2023-02-04T12:42:02;99119.66;;;-2.38;57.10
21401;BME280;18038;50.166;18.908;2023-02-04T12:45:23;99122.22;;;-2.68;58.04
21401;BME280;18038;50.166;18.908;2023-02-04T12:48:44;99125.91;;;-2.56;58.59
21401;BME280;18038;50.166;18.908;2023-02-04T12:52:08;99123.56;;;-2.61;58.80
21401;BME280;18038;50.166;18.908;2023-02-04T12:55:32;99136.06;;;-2.66;58.45
21401;BME280;18038;50.166;18.908;2023-02-04T12:58:53;99129.63;;;-2.76;58.81
21401;BME280;18038;50.166;18.908;2023-02-04T13:02:16;99144.16;;;-2.55;58.70
21401;BME280;18038;50.166;18.908;2023-02-04T13:05:37;99148.69;;;-2.58;58.40
21401;BME280;18038;50.166;18.908;2023-02-04T13:09:01;99148.34;;;-3.00;58.56
21401;BME280;18038;50.166;18.908;2023-02-04T13:12:21;99164.38;;;-2.90;59.79
21401;BME280;18038;50.166;18.908;2023-02-04T13:15:42;99166.91;;;-2.88;60.20
21401;BME280;18038;50.166;18.908;2023-02-04T13:19:06;99168.72;;;-3.06;60.14
21401;BME280;18038;50.166;18.908;2023-02-04T13:22:27;99172.16;;;-3.39;59.54
21401;BME280;18038;50.166;18.908;2023-02-04T13:25:50;99190.97;;;-3.15;60.39
21401;BME280;18038;50.166;18.908;2023-02-04T13:29:11;99187.78;;;-3.04;60.91
21401;BME280;18038;50.166;18.908;2023-02-04T13:32:32;99200.97;;;-3.41;61.44
21401;BME280;18038;50.166;18.908;2023-02-04T13:35:53;99198.72;;;-3.14;60.85
21401;BME280;18038;50.166;18.908;2023-02-04T13:39:14;99199.72;;;-2.83;60.81
21401;BME280;18038;50.166;18.908;2023-02-04T13:42:38;99207.44;;;-2.97;60.97
21401;BME280;18038;50.166;18.908;2023-02-04T13:45:59;99206.91;;;-2.71;61.67
21401;BME280;18038;50.166;18.908;2023-02-04T13:49:21;99216.69;;;-2.90;62.38
21401;BME280;18038;50.166;18.908;2023-02-04T13:52:42;99211.44;;;-2.90;62.32
21401;BME280;18038;50.166;18.908;2023-02-04T13:56:03;99215.09;;;-3.62;63.60
21401;BME280;18038;50.166;18.908;2023-02-04T13:59:27;99211.22;;;-3.53;63.44
21401;BME280;18038;50.166;18.908;2023-02-04T14:02:47;99214.75;;;-3.37;63.95
21401;BME280;18038;50.166;18.908;2023-02-04T14:06:10;99217.28;;;-3.53;63.91
21401;BME280;18038;50.166;18.908;2023-02-04T14:09:31;99229.94;;;-3.63;64.54
21401;BME280;18038;50.166;18.908;2023-02-04T14:12:52;99235.19;;;-3.45;64.28
21401;BME280;18038;50.166;18.908;2023-02-04T14:16:17;99230.16;;;-3.32;64.33
21401;BME280;18038;50.166;18.908;2023-02-04T14:19:38;99235.63;;;-3.54;65.17
21401;BME280;18038;50.166;18.908;2023-02-04T14:22:58;99242.88;;;-3.42;65.14
21401;BME280;18038;50.166;18.908;2023-02-04T14:26:19;99241.94;;;-3.41;65.52
21401;BME280;18038;50.166;18.908;2023-02-04T14:29:40;99247.25;;;-3.43;65.21
21401;BME280;18038;50.166;18.908;2023-02-04T14:33:03;99262.34;;;-3.67;66.16
21401;BME280;18038;50.166;18.908;2023-02-04T14:36:25;99263.25;;;-3.85;67.75
21401;BME280;18038;50.166;18.908;2023-02-04T14:39:45;99252.13;;;-3.71;67.67
21401;BME280;18038;50.166;18.908;2023-02-04T14:43:10;99260.81;;;-3.71;67.31
21401;BME280;18038;50.166;18.908;2023-02-04T14:46:30;99255.69;;;-3.55;67.15
21401;BME280;18038;50.166;18.908;2023-02-04T14:49:54;99240.31;;;-3.61;66.95
21401;BME280;18038;50.166;18.908;2023-02-04T14:53:14;99261.69;;;-3.53;67.49
21401;BME280;18038;50.166;18.908;2023-02-04T14:56:35;99254.03;;;-3.75;68.10
21401;BME280;18038;50.166;18.908;2023-02-04T14:59:56;99264.31;;;-3.89;69.31
21401;BME280;18038;50.166;18.908;2023-02-04T15:03:17;99268.41;;;-4.03;70.02
21401;BME280;18038;50.166;18.908;2023-02-04T15:06:40;99281.41;;;-4.20;72.35
21401;BME280;18038;50.166;18.908;2023-02-04T15:10:02;99291.09;;;-4.22;73.96
21401;BME280;18038;50.166;18.908;2023-02-04T15:13:24;99307.13;;;-4.31;77.61
21401;BME280;18038;50.166;18.908;2023-02-04T15:16:45;99295.31;;;-4.19;80.08
21401;BME280;18038;50.166;18.908;2023-02-04T15:20:08;99291.47;;;-4.50;80.93
21401;BME280;18038;50.166;18.908;2023-02-04T15:23:41;99310.09;;;-4.78;80.60
21401;BME280;18038;50.166;18.908;2023-02-04T15:27:04;99315.25;;;-4.77;81.81
21401;BME280;18038;50.166;18.908;2023-02-04T15:30:25;99307.28;;;-4.53;80.81
21401;BME280;18038;50.166;18.908;2023-02-04T15:33:45;99321.47;;;-4.60;80.32
21401;BME280;18038;50.166;18.908;2023-02-04T15:37:15;99313.19;;;-4.50;80.02
21401;BME280;18038;50.166;18.908;2023-02-04T15:40:42;99314.09;;;-4.70;80.00
21401;BME280;18038;50.166;18.908;2023-02-04T15:44:03;99314.50;;;-4.60;79.78
21401;BME280;18038;50.166;18.908;2023-02-04T15:47:24;99317.44;;;-4.68;79.09
21401;BME280;18038;50.166;18.908;2023-02-04T15:50:44;99320.50;;;-4.58;79.04
21401;BME280;18038;50.166;18.908;2023-02-04T15:54:05;99322.06;;;-4.54;77.82
21401;BME280;18038;50.166;18.908;2023-02-04T15:57:28;99323.47;;;-4.47;77.24
21401;BME280;18038;50.166;18.908;2023-02-04T16:00:49;99318.53;;;-4.53;76.69
21401;BME280;18038;50.166;18.908;2023-02-04T16:04:10;99330.66;;;-4.52;76.68
21401;BME280;18038;50.166;18.908;2023-02-04T16:07:31;99317.69;;;-4.53;75.06
21401;BME280;18038;50.166;18.908;2023-02-04T16:10:52;99326.72;;;-4.41;74.74
21401;BME280;18038;50.166;18.908;2023-02-04T16:14:29;99333.31;;;-4.33;73.73
21401;BME280;18038;50.166;18.908;2023-02-04T16:17:56;99334.06;;;-4.31;72.63
21401;BME280;18038;50.166;18.908;2023-02-04T16:21:16;99334.34;;;-4.37;72.00
21401;BME280;18038;50.166;18.908;2023-02-04T16:24:37;99341.13;;;-4.33;72.04
21401;BME280;18038;50.166;18.908;2023-02-04T16:27:59;99347.56;;;-4.21;71.73
21401;BME280;18038;50.166;18.908;2023-02-04T16:31:24;99349.03;;;-4.15;71.91
21401;BME280;18038;50.166;18.908;2023-02-04T16:34:45;99345.88;;;-4.22;71.89
21401;BME280;18038;50.166;18.908;2023-02-04T16:38:06;99352.66;;;-4.38;73.13
21401;BME280;18038;50.166;18.908;2023-02-04T16:41:27;99352.75;;;-4.40;73.50
21401;BME280;18038;50.166;18.908;2023-02-04T16:44:47;99346.28;;;-4.31;73.98
21401;BME280;18038;50.166;18.908;2023-02-04T16:48:11;99346.91;;;-4.26;74.33
21401;BME280;18038;50.166;18.908;2023-02-04T16:51:34;99353.72;;;-4.42;74.03
21401;BME280;18038;50.166;18.908;2023-02-04T16:54:55;99351.94;;;-4.61;74.67
21401;BME280;18038;50.166;18.908;2023-02-04T16:58:19;99365.16;;;-4.65;75.42
21401;BME280;18038;50.166;18.908;2023-02-04T17:01:42;99369.19;;;-4.58;75.70
21401;BME280;18038;50.166;18.908;2023-02-04T17:05:06;99368.03;;;-4.51;75.14
21401;BME280;18038;50.166;18.908;2023-02-04T17:08:27;99376.56;;;-4.68;75.52
21401;BME280;18038;50.166;18.908;2023-02-04T17:11:48;99364.13;;;-4.82;76.20